Time;durP1;ratioP1;P1;durP2;ratioP2;P2;SDS_P1;SDS_P2;PMS_P1;PMS_P2;Temp;Humidity;BMP_temperature;BMP_pressure;BME280_temperature;BME280_humidity;BME280_pressure;Samples;Min_cycle;Max_cycle;Signal;HPM_P1;HPM_P2
2023/10/27 00:00:19;;;;;;;2.67;0.60;;;;;;;17.70;100.00;100171.91;2060649;28;20246;-67
2023/10/27 00:01:20;;;;;;;2.20;0.40;;;;;;;17.72;100.00;100174.22;2060074;28;20194;-69
2023/10/27 00:02:20;;;;;;;1.43;0.70;;;;;;;17.72;100.00;100169.41;2070276;28;20577;-69
2023/10/27 00:03:21;;;;;;;0.83;0.40;;;;;;;17.76;100.00;100164.34;2064396;28;20191;-69
2023/10/27 00:04:21;;;;;;;0.80;0.40;;;;;;;17.77;100.00;100157.50;2063725;28;20377;-68
2023/10/27 00:05:21;;;;;;;0.57;0.50;;;;;;;17.81;100.00;100154.47;2070572;28;20205;-68
2023/10/27 00:06:22;;;;;;;0.30;0.20;;;;;;;17.71;100.00;100117.41;2059771;28;20286;-67
2023/10/27 00:07:22;;;;;;;1.03;0.47;;;;;;;17.91;100.00;100142.59;2064714;28;20226;-67
2023/10/27 00:08:23;;;;;;;1.33;0.47;;;;;;;17.90;100.00;100138.25;2065190;28;20192;-68
2023/10/27 00:09:24;;;;;;;1.07;0.43;;;;;;;17.96;100.00;100141.13;2055652;28;20274;-68
2023/10/27 00:10:25;;;;;;;1.00;0.40;;;;;;;17.98;100.00;100147.00;2056989;28;20264;-68
2023/10/27 00:11:26;;;;;;;1.40;0.60;;;;;;;18.00;100.00;100145.25;2063692;28;20482;-67
2023/10/27 00:12:26;;;;;;;1.80;0.30;;;;;;;17.96;100.00;100136.28;2063620;28;20221;-68
2023/10/27 00:13:26;;;;;;;1.33;0.50;;;;;;;18.03;100.00;100138.66;2064205;28;20209;-68
2023/10/27 00:14:27;;;;;;;2.37;0.43;;;;;;;17.72;100.00;100101.38;2063491;28;20213;-68
2023/10/27 00:15:28;;;;;;;1.27;0.50;;;;;;;18.07;100.00;100142.00;2064980;28;20205;-68
2023/10/27 00:16:29;;;;;;;4.77;0.60;;;;;;;18.07;100.00;100141.25;2064626;28;20291;-68
2023/10/27 00:17:29;;;;;;;1.90;0.40;;;;;;;18.08;100.00;100141.50;2065365;28;20565;-68
2023/10/27 00:18:30;;;;;;;2.77;0.83;;;;;;;18.13;100.00;100140.78;2065071;28;20417;-68
2023/10/27 00:19:30;;;;;;;0.67;0.50;;;;;;;18.16;100.00;100144.63;2065093;28;20227;-68
2023/10/27 00:20:31;;;;;;;1.07;0.60;;;;;;;17.89;100.00;100100.28;2057680;28;20553;-68
2023/10/27 00:21:31;;;;;;;1.60;0.60;;;;;;;18.23;100.00;100149.03;2063678;28;20240;-68
2023/10/27 00:22:33;;;;;;;1.23;0.60;;;;;;;18.02;100.00;100128.69;2063900;28;20452;-68
2023/10/27 00:23:33;;;;;;;1.27;0.50;;;;;;;18.24;100.00;100145.75;2065079;28;20572;-68
2023/10/27 00:24:33;;;;;;;0.57;0.43;;;;;;;18.24;100.00;100143.69;2064791;28;20559;-68
2023/10/27 00:25:34;;;;;;;0.80;0.50;;;;;;;18.22;100.00;100151.06;2065200;28;20309;-68
2023/10/27 00:26:34;;;;;;;2.23;0.60;;;;;;;18.26;100.00;100142.44;2064370;28;20186;-69
2023/10/27 00:27:35;;;;;;;0.70;0.50;;;;;;;18.26;100.00;100148.06;2065307;28;20174;-69
2023/10/27 00:28:35;;;;;;;0.97;0.60;;;;;;;17.91;100.00;100097.00;2065616;28;20266;-70
2023/10/27 00:29:35;;;;;;;1.03;0.60;;;;;;;18.26;100.00;100151.63;2065438;28;20249;-70
2023/10/27 00:30:36;;;;;;;2.07;0.47;;;;;;;18.25;100.00;100141.66;2064929;28;20229;-70
2023/10/27 00:31:36;;;;;;;1.10;0.67;;;;;;;18.26;100.00;100143.19;2070136;28;20215;-70
2023/10/27 00:32:37;;;;;;;0.90;0.60;;;;;;;18.24;100.00;100148.53;2066504;28;20221;-70
2023/10/27 00:33:37;;;;;;;2.07;0.80;;;;;;;18.23;100.00;100150.56;2065099;28;20280;-70
2023/10/27 00:34:37;;;;;;;2.67;0.50;;;;;;;18.23;100.00;100149.03;2064649;28;20176;-68
2023/10/27 00:35:38;;;;;;;0.97;0.60;;;;;;;18.19;100.00;100150.03;2065205;28;20254;-68
2023/10/27 00:36:38;;;;;;;3.57;0.67;;;;;;;18.21;100.00;100146.72;2065113;28;20236;-68
2023/10/27 00:37:40;;;;;;;2.27;0.60;;;;;;;17.72;100.00;100071.31;2064994;28;20634;-68
2023/10/27 00:38:41;;;;;;;1.13;0.50;;;;;;;18.23;100.00;100147.00;2065415;28;20609;-68
2023/10/27 00:39:41;;;;;;;2.40;0.57;;;;;;;17.95;100.00;100112.31;2064888;28;20502;-68
2023/10/27 00:40:41;;;;;;;1.37;0.63;;;;;;;18.23;100.00;100150.56;2061143;28;20207;-68
2023/10/27 00:41:42;;;;;;;0.90;0.37;;;;;;;18.24;100.00;100149.31;2059765;28;20219;-68
2023/10/27 00:42:42;;;;;;;3.30;0.80;;;;;;;18.10;100.00;100135.41;2064763;28;20216;-68
2023/10/27 00:43:43;;;;;;;1.80;0.63;;;;;;;17.72;100.00;100078.94;2065012;28;20180;-68
2023/10/27 00:44:43;;;;;;;1.13;0.43;;;;;;;18.19;100.00;100154.88;2073562;28;20240;-70
2023/10/27 00:45:49;;;;;;;1.17;0.87;;;;;;;18.19;100.00;100154.88;2065449;28;20186;-70
2023/10/27 00:46:52;;;;;;;1.33;0.70;;;;;;;18.18;100.00;100144.94;2063927;28;20321;-70
2023/10/27 00:47:53;;;;;;;1.97;1.00;;;;;;;18.19;100.00;100146.47;2065076;28;20445;-70
2023/10/27 00:48:54;;;;;;;1.27;0.50;;;;;;;17.85;100.00;100096.91;2064670;28;20449;-70
2023/10/27 00:49:55;;;;;;;2.67;0.50;;;;;;;18.21;100.00;100149.53;2065118;28;20206;-68
2023/10/27 00:50:56;;;;;;;4.80;0.60;;;;;;;17.59;100.00;100048.50;2064973;28;20445;-67
2023/10/27 00:51:56;;;;;;;1.90;0.60;;;;;;;18.21;100.00;100155.13;2063068;28;20626;-69
2023/10/27 00:52:57;;;;;;;0.77;0.37;;;;;;;18.20;100.00;100145.19;2057501;28;20183;-69
2023/10/27 00:53:59;;;;;;;0.93;0.50;;;;;;;18.05;100.00;100130.50;2065646;28;20189;-70
2023/10/27 00:55:00;;;;;;;2.13;0.67;;;;;;;18.19;100.00;100150.03;2056564;28;20573;-70
2023/10/27 00:56:01;;;;;;;1.23;0.50;;;;;;;18.21;100.00;100146.72;2063477;28;20451;-70
2023/10/27 00:57:02;;;;;;;0.80;0.40;;;;;;;18.19;100.00;100146.47;2064738;28;20201;-70
2023/10/27 00:58:03;;;;;;;2.77;0.60;;;;;;;18.16;100.00;100141.84;2065098;28;20445;-70
2023/10/27 00:59:04;;;;;;;1.27;0.40;;;;;;;18.17;100.00;100142.63;2064795;28;20676;-70
2023/10/27 01:00:05;;;;;;;2.20;0.67;;;;;;;18.17;100.00;100141.34;2065148;28;20476;-68
2023/10/27 01:01:07;;;;;;;2.40;0.40;;;;;;;18.15;100.00;100134.69;2063321;28;20218;-69
2023/10/27 01:02:07;;;;;;;1.20;0.50;;;;;;;18.10;100.00;100132.59;2056681;28;20500;-68
2023/10/27 01:03:08;;;;;;;0.90;0.40;;;;;;;18.14;100.00;100138.75;2065359;28;20429;-68
2023/10/27 01:04:08;;;;;;;1.17;0.50;;;;;;;18.14;100.00;100130.34;2057332;28;20198;-68
2023/10/27 01:05:09;;;;;;;1.67;0.50;;;;;;;18.16;100.00;100132.66;2063338;28;20199;-68
2023/10/27 01:06:09;;;;;;;2.77;0.63;;;;;;;17.52;100.00;100046.91;2064286;28;20606;-69
2023/10/27 01:07:10;;;;;;;2.10;0.70;;;;;;;18.12;100.00;100132.13;2064569;28;20204;-70
2023/10/27 01:08:10;;;;;;;2.30;0.63;;;;;;;18.13;100.00;100142.06;2062256;28;20641;-70
2023/10/27 01:09:11;;;;;;;0.67;0.40;;;;;;;18.13;100.00;100139.25;2058353;28;20198;-70
2023/10/27 01:10:11;;;;;;;1.27;0.50;;;;;;;18.13;100.00;100142.06;2064826;28;20178;-70
2023/10/27 01:11:12;;;;;;;1.90;0.80;;;;;;;18.11;100.00;100141.78;2065348;28;20225;-70
2023/10/27 01:12:12;;;;;;;3.23;0.60;;;;;;;18.09;100.00;100145.84;2056899;28;20247;-70
2023/10/27 01:13:12;;;;;;;0.80;0.40;;;;;;;18.09;100.00;100150.69;2063260;28;20576;-70
2023/10/27 01:14:13;;;;;;;2.03;0.50;;;;;;;18.06;100.00;100153.72;2065078;28;20265;-70
2023/10/27 01:15:13;;;;;;;0.93;0.40;;;;;;;18.04;100.00;100146.56;2064479;28;20260;-70
2023/10/27 01:16:14;;;;;;;1.23;0.73;;;;;;;18.02;100.00;100154.69;2063428;28;20298;-70
2023/10/27 01:17:14;;;;;;;1.87;0.60;;;;;;;18.02;100.00;100153.91;2064139;28;20694;-70
2023/10/27 01:18:15;;;;;;;1.27;0.53;;;;;;;17.98;100.00;100144.97;2064717;28;20322;-70
2023/10/27 01:19:18;;;;;;;1.90;0.60;;;;;;;17.98;100.00;100145.72;2065241;28;20182;-70
2023/10/27 01:20:18;;;;;;;1.40;0.60;;;;;;;17.97;100.00;100160.22;2065050;28;20198;-70
2023/10/27 01:21:19;;;;;;;1.07;0.30;;;;;;;17.95;100.00;100154.38;2057445;28;20564;-70
2023/10/27 01:22:19;;;;;;;1.83;0.47;;;;;;;17.92;100.00;100150.50;2061494;28;20244;-70
2023/10/27 01:23:20;;;;;;;0.70;0.40;;;;;;;17.80;100.00;100127.72;2064629;28;20186;-70
2023/10/27 01:24:22;;;;;;;0.93;0.40;;;;;;;17.87;100.00;100152.50;2064582;28;20214;-70
2023/10/27 01:25:22;;;;;;;0.43;0.40;;;;;;;17.86;100.00;100162.16;2064873;28;20179;-70
2023/10/27 01:26:23;;;;;;;0.87;0.37;;;;;;;17.60;100.00;100122.88;2063298;28;20491;-70
2023/10/27 01:27:23;;;;;;;1.50;0.60;;;;;;;17.82;100.00;100153.97;2064270;28;20186;-69
2023/10/27 01:28:24;;;;;;;0.57;0.40;;;;;;;17.81;100.00;100154.47;2065043;28;20186;-70
2023/10/27 01:29:28;;;;;;;2.43;0.50;;;;;;;17.79;100.00;100154.97;2065084;28;20190;-68
2023/10/27 01:30:28;;;;;;;1.53;0.50;;;;;;;17.79;100.00;100154.97;2064785;28;20588;-68
2023/10/27 01:31:29;;;;;;;1.47;0.50;;;;;;;17.14;100.00;100054.81;2064844;28;20445;-70
2023/10/27 01:32:29;;;;;;;2.43;0.60;;;;;;;17.77;100.00;100154.69;2063997;28;20229;-68
2023/10/27 01:33:29;;;;;;;1.47;0.50;;;;;;;17.67;100.00;100142.84;2064761;28;20273;-68
2023/10/27 01:34:30;;;;;;;1.87;0.50;;;;;;;17.76;100.00;100153.13;2064314;28;20182;-68
2023/10/27 01:35:30;;;;;;;0.40;0.30;;;;;;;17.73;100.00;100157.69;2064517;28;20305;-68
2023/10/27 01:36:31;;;;;;;4.80;0.63;;;;;;;17.68;100.00;100149.97;2064669;28;20277;-69
2023/10/27 01:37:31;;;;;;;1.03;0.53;;;;;;;17.71;100.00;100145.44;2057267;28;20580;-70
2023/10/27 01:38:32;;;;;;;1.60;0.60;;;;;;;17.71;100.00;100148.22;2063170;28;20644;-70
2023/10/27 01:39:32;;;;;;;1.53;0.60;;;;;;;17.71;100.00;100153.06;2064821;28;20598;-70
2023/10/27 01:40:32;;;;;;;2.03;0.60;;;;;;;17.68;100.00;100147.19;2060392;28;20578;-70
2023/10/27 01:41:33;;;;;;;2.50;0.77;;;;;;;16.86;100.00;100026.47;2059676;28;20628;-70
2023/10/27 01:42:34;;;;;;;1.87;0.60;;;;;;;17.68;100.00;100154.84;2062276;28;20661;-70
2023/10/27 01:43:35;;;;;;;1.90;0.67;;;;;;;17.67;100.00;100152.50;2057226;28;20254;-70
2023/10/27 01:44:35;;;;;;;1.30;0.60;;;;;;;17.65;100.00;100157.84;2065008;28;20473;-70
2023/10/27 01:45:36;;;;;;;1.07;0.70;;;;;;;17.63;100.00;100159.09;2056852;28;20205;-70
2023/10/27 01:46:36;;;;;;;3.03;0.87;;;;;;;17.61;100.00;100160.09;2062196;28;20652;-70
2023/10/27 01:47:36;;;;;;;1.37;0.73;;;;;;;17.58;100.00;100163.88;2064714;28;20202;-68
2023/10/27 01:48:37;;;;;;;1.50;0.77;;;;;;;17.18;100.00;100103.78;2063606;28;20287;-68
2023/10/27 01:49:37;;;;;;;1.47;0.90;;;;;;;17.51;100.00;100162.25;2064480;28;20641;-68
2023/10/27 01:50:38;;;;;;;0.97;0.73;;;;;;;17.52;100.00;100157.44;2064518;28;20178;-68
2023/10/27 01:51:38;;;;;;;1.10;0.60;;;;;;;17.52;100.00;100165.84;2064551;28;20175;-68
2023/10/27 01:52:38;;;;;;;0.50;0.50;;;;;;;17.51;100.00;100162.25;2064430;28;20261;-69
2023/10/27 01:53:39;;;;;;;1.53;0.73;;;;;;;17.52;100.00;100163.03;2071480;28;20208;-68
2023/10/27 01:54:39;;;;;;;1.20;0.60;;;;;;;17.48;100.00;100163.25;2066375;28;20597;-68
2023/10/27 01:55:40;;;;;;;2.13;1.10;;;;;;;17.49;100.00;100170.38;2064440;28;20829;-68
2023/10/27 01:56:40;;;;;;;1.63;1.03;;;;;;;17.49;100.00;100156.38;2059910;28;20200;-68
2023/10/27 01:57:41;;;;;;;1.20;0.90;;;;;;;17.10;100.00;100115.84;2059422;28;20191;-68
2023/10/27 01:58:44;;;;;;;1.27;0.67;;;;;;;17.48;100.00;100165.25;2062669;28;20178;-68
2023/10/27 01:59:49;;;;;;;2.27;0.80;;;;;;;17.47;100.00;100161.72;2060918;28;20216;-68
2023/10/27 02:00:49;;;;;;;0.80;0.50;;;;;;;17.46;100.00;100162.19;2064070;28;20808;-69
2023/10/27 02:01:50;;;;;;;0.90;0.60;;;;;;;17.45;100.00;100160.66;2064712;28;20443;-68
2023/10/27 02:02:50;;;;;;;3.40;1.00;;;;;;;17.43;100.00;100163.94;2063613;28;20179;-69
2023/10/27 02:03:50;;;;;;;0.90;0.60;;;;;;;17.41;100.00;100160.09;2064675;28;20171;-69
2023/10/27 02:04:51;;;;;;;0.43;0.43;;;;;;;17.39;100.00;100165.44;2064694;28;20236;-69
2023/10/27 02:05:51;;;;;;;2.13;0.60;;;;;;;17.39;100.00;100157.03;2064598;28;20233;-70
2023/10/27 02:06:52;;;;;;;5.70;0.60;;;;;;;17.39;100.00;100168.22;2063802;28;20197;-68
2023/10/27 02:07:53;;;;;;;6.23;0.70;;;;;;;17.28;100.00;100144.38;2064423;28;20340;-68
2023/10/27 02:08:53;;;;;;;2.37;0.73;;;;;;;17.37;100.00;100154.66;2064375;28;20445;-68
2023/10/27 02:09:54;;;;;;;3.60;0.50;;;;;;;17.32;100.00;100158.94;2064592;28;20205;-68
2023/10/27 02:10:54;;;;;;;0.50;0.37;;;;;;;17.29;100.00;100159.13;2064666;28;20615;-68
2023/10/27 02:11:55;;;;;;;1.73;0.67;;;;;;;16.69;100.00;100067.47;2064370;28;20256;-68
2023/10/27 02:12:55;;;;;;;1.70;0.73;;;;;;;17.30;100.00;100157.88;2064072;28;20218;-68
2023/10/27 02:13:56;;;;;;;1.83;0.70;;;;;;;17.31;100.00;100159.44;2064783;28;20209;-68
2023/10/27 02:14:56;;;;;;;2.00;0.73;;;;;;;17.33;100.00;100159.72;2064438;28;20190;-68
2023/10/27 02:15:57;;;;;;;2.63;0.80;;;;;;;17.34;100.00;100153.63;2064271;28;20199;-68
2023/10/27 02:16:57;;;;;;;0.97;0.87;;;;;;;17.32;100.00;100156.13;2064122;28;20198;-67
2023/10/27 02:17:58;;;;;;;2.23;0.80;;;;;;;17.32;100.00;100163.78;2064740;28;20588;-68
2023/10/27 02:18:58;;;;;;;3.07;0.77;;;;;;;17.33;100.00;100162.50;2064308;28;20192;-68
2023/10/27 02:19:58;;;;;;;1.37;0.63;;;;;;;17.34;100.00;100153.63;2064330;28;20185;-68
2023/10/27 02:20:59;;;;;;;1.30;0.60;;;;;;;17.32;100.00;100163.78;2064604;28;20182;-68
2023/10/27 02:21:59;;;;;;;1.23;0.80;;;;;;;17.32;100.00;100156.13;2064559;28;20582;-68
2023/10/27 02:23:00;;;;;;;0.90;0.73;;;;;;;17.32;100.00;100167.31;2063952;28;20260;-68
2023/10/27 02:24:00;;;;;;;1.57;0.70;;;;;;;17.32;100.00;100156.13;2064671;28;20233;-68
2023/10/27 02:25:02;;;;;;;2.23;0.80;;;;;;;17.31;100.00;100160.19;2059584;28;20202;-69
2023/10/27 02:26:03;;;;;;;2.40;0.90;;;;;;;17.28;100.00;100147.19;2059393;28;20248;-68
2023/10/27 02:27:04;;;;;;;2.13;0.90;;;;;;;17.28;100.00;100157.59;2061485;28;20484;-68
2023/10/27 02:28:04;;;;;;;2.73;1.00;;;;;;;17.26;100.00;100146.88;2057764;28;20178;-68
2023/10/27 02:29:04;;;;;;;2.23;1.20;;;;;;;16.76;100.00;100069.09;2063944;28;20190;-69
2023/10/27 02:30:06;;;;;;;2.27;0.93;;;;;;;17.25;100.00;100152.97;2064879;28;20178;-69
2023/10/27 02:31:07;;;;;;;1.77;0.80;;;;;;;17.22;100.00;100137.91;2063954;28;20206;-70
2023/10/27 02:32:07;;;;;;;3.83;0.80;;;;;;;17.19;100.00;100143.72;2063550;28;20451;-70
2023/10/27 02:33:08;;;;;;;2.57;0.90;;;;;;;17.17;100.00;100137.84;2064606;28;20546;-70
2023/10/27 02:34:08;;;;;;;4.60;1.23;;;;;;;17.18;100.00;100151.38;2064132;28;20217;-70
2023/10/27 02:35:08;;;;;;;1.53;0.70;;;;;;;17.18;100.00;100150.59;2063756;28;20260;-70
2023/10/27 02:36:09;;;;;;;2.80;0.90;;;;;;;17.18;100.00;100145.00;2063936;28;20191;-70
2023/10/27 02:37:09;;;;;;;2.20;1.10;;;;;;;17.15;100.00;100148.75;2064032;28;20189;-70
2023/10/27 02:38:10;;;;;;;3.23;0.90;;;;;;;17.14;100.00;100150.03;2072695;28;20673;-70
2023/10/27 02:39:10;;;;;;;0.93;0.70;;;;;;;17.11;100.00;100148.22;2065075;28;20607;-70
2023/10/27 02:40:11;;;;;;;1.40;0.80;;;;;;;17.09;100.00;100140.28;2064177;28;20278;-70
2023/10/27 02:41:12;;;;;;;2.00;0.93;;;;;;;17.05;100.00;100144.56;2063992;28;20571;-70
2023/10/27 02:42:12;;;;;;;1.53;0.90;;;;;;;17.05;100.00;100142.53;2063468;28;20208;-70
2023/10/27 02:43:12;;;;;;;1.60;1.00;;;;;;;16.98;100.00;100133.00;2064221;28;20220;-70
2023/10/27 02:44:13;;;;;;;3.27;1.17;;;;;;;16.99;100.00;100138.88;2064013;28;20185;-70
2023/10/27 02:45:14;;;;;;;2.30;1.00;;;;;;;16.99;100.00;100138.09;2063845;28;20224;-70
2023/10/27 02:46:15;;;;;;;1.07;0.70;;;;;;;16.69;100.00;100098.25;2064069;28;20729;-70
2023/10/27 02:47:15;;;;;;;1.47;0.87;;;;;;;16.88;100.00;100124.72;2063913;28;20828;-70
2023/10/27 02:48:16;;;;;;;1.37;0.80;;;;;;;16.97;100.00;100135.03;2064389;28;20228;-70
2023/10/27 02:49:16;;;;;;;2.50;0.90;;;;;;;16.92;100.00;100139.31;2063878;28;20200;-70
2023/10/27 02:50:17;;;;;;;6.90;1.10;;;;;;;16.93;100.00;100143.63;2064367;28;20196;-70
2023/10/27 02:51:17;;;;;;;2.23;0.90;;;;;;;16.45;100.00;100061.25;2063915;28;20201;-70
2023/10/27 02:52:18;;;;;;;1.10;0.80;;;;;;;16.96;100.00;100142.63;2063404;28;20182;-70
2023/10/27 02:53:18;;;;;;;1.43;0.80;;;;;;;16.91;100.00;100134.94;2064195;28;20201;-70
2023/10/27 02:54:19;;;;;;;1.80;1.13;;;;;;;16.96;100.00;100137.03;2064720;28;20184;-70
2023/10/27 02:55:19;;;;;;;0.70;0.57;;;;;;;16.96;100.00;100134.25;2056258;28;20659;-70
2023/10/27 02:56:20;;;;;;;3.07;0.80;;;;;;;16.95;100.00;100129.16;2068726;28;20863;-68
2023/10/27 02:57:20;;;;;;;2.10;1.00;;;;;;;16.95;100.00;100131.97;2061439;28;20201;-67
2023/10/27 02:58:20;;;;;;;2.17;0.80;;;;;;;16.94;100.00;100130.38;2060413;28;20197;-69
2023/10/27 02:59:21;;;;;;;1.90;0.80;;;;;;;16.95;100.00;100127.13;2064034;28;20195;-69
2023/10/27 03:00:21;;;;;;;2.17;0.90;;;;;;;16.98;100.00;100127.41;2063328;28;20190;-69
2023/10/27 03:01:22;;;;;;;2.20;0.70;;;;;;;16.96;100.00;100123.06;2064029;28;20186;-69
2023/10/27 03:02:22;;;;;;;3.47;0.70;;;;;;;16.97;100.00;100123.84;2064113;28;20189;-69
2023/10/27 03:03:24;;;;;;;2.27;0.90;;;;;;;16.99;100.00;100129.69;2064326;28;20194;-69
2023/10/27 03:04:27;;;;;;;1.17;0.70;;;;;;;16.93;100.00;100115.66;2063825;28;20247;-69
2023/10/27 03:05:27;;;;;;;3.47;0.90;;;;;;;16.99;100.00;100124.88;2064348;28;20882;-69
2023/10/27 03:06:27;;;;;;;5.23;1.10;;;;;;;16.96;100.00;100125.09;2058827;28;20457;-69
2023/10/27 03:07:28;;;;;;;0.80;0.70;;;;;;;16.98;100.00;100116.97;2056007;28;20203;-69
2023/10/27 03:08:28;;;;;;;1.17;0.60;;;;;;;16.99;100.00;100118.50;2058100;28;20218;-69
2023/10/27 03:09:29;;;;;;;2.43;0.90;;;;;;;16.95;100.00;100115.16;2062932;28;20576;-69
2023/10/27 03:10:31;;;;;;;2.63;0.80;;;;;;;16.85;100.00;100096.97;2056367;28;20193;-69
2023/10/27 03:11:32;;;;;;;1.40;0.80;;;;;;;16.99;100.00;100118.50;2056572;28;20579;-70
2023/10/27 03:12:32;;;;;;;1.30;0.87;;;;;;;17.00;100.00;100114.47;2069300;28;20459;-70
2023/10/27 03:13:33;;;;;;;1.37;0.83;;;;;;;17.01;100.00;100107.59;2060345;28;20269;-69
2023/10/27 03:14:34;;;;;;;1.10;0.57;;;;;;;16.99;100.00;100107.31;2060636;28;20186;-68
2023/10/27 03:15:37;;;;;;;1.70;0.77;;;;;;;17.00;100.00;100100.47;2064057;28;20437;-70
2023/10/27 03:16:38;;;;;;;1.70;0.80;;;;;;;17.00;100.00;100095.63;2063375;28;20197;-68
2023/10/27 03:17:38;;;;;;;3.13;1.00;;;;;;;16.74;100.00;100054.81;2063704;28;20602;-69
2023/10/27 03:18:38;;;;;;;2.87;0.87;;;;;;;17.03;100.00;100091.09;2064216;28;20182;-69
2023/10/27 03:19:39;;;;;;;1.30;0.80;;;;;;;16.98;100.00;100077.78;2064418;28;20182;-70
2023/10/27 03:20:39;;;;;;;6.23;0.80;;;;;;;17.02;100.00;100084.72;2056420;28;20218;-70
2023/10/27 03:21:40;;;;;;;3.30;0.87;;;;;;;17.03;100.00;100094.66;2062553;28;20188;-70
2023/10/27 03:22:41;;;;;;;1.23;0.80;;;;;;;17.04;100.00;100089.81;2068254;28;20203;-70
2023/10/27 03:23:41;;;;;;;1.80;0.90;;;;;;;17.05;100.00;100092.13;2067678;28;20583;-70
2023/10/27 03:24:42;;;;;;;1.63;0.73;;;;;;;17.05;100.00;100088.59;2063013;28;20726;-70
2023/10/27 03:25:42;;;;;;;1.60;0.97;;;;;;;17.06;100.00;100084.53;2063127;28;20644;-70
2023/10/27 03:26:42;;;;;;;1.60;0.83;;;;;;;17.02;100.00;100087.53;2056413;28;20718;-70
2023/10/27 03:27:44;;;;;;;1.67;0.60;;;;;;;17.07;100.00;100086.06;2064313;28;20253;-70
2023/10/27 03:28:44;;;;;;;1.33;0.90;;;;;;;17.08;100.00;100096.00;2056161;28;20281;-70
2023/10/27 03:29:45;;;;;;;2.43;0.70;;;;;;;17.09;100.00;100100.31;2062567;28;20452;-69
2023/10/27 03:30:48;;;;;;;1.03;0.70;;;;;;;17.09;100.00;100083.53;2058545;28;20191;-69
2023/10/27 03:31:50;;;;;;;1.23;0.93;;;;;;;17.09;100.00;100087.09;2060564;28;20460;-70
2023/10/27 03:32:50;;;;;;;2.33;1.00;;;;;;;17.05;100.00;100094.94;2059466;28;20446;-70
2023/10/27 03:33:51;;;;;;;1.00;0.77;;;;;;;17.08;100.00;100087.59;2058715;28;20426;-68
2023/10/27 03:34:52;;;;;;;1.80;0.63;;;;;;;17.06;100.00;100093.66;2061723;28;20240;-68
2023/10/27 03:35:52;;;;;;;1.00;0.60;;;;;;;17.07;100.00;100081.22;2056198;28;20546;-69
2023/10/27 03:36:53;;;;;;;2.10;0.70;;;;;;;17.09;100.00;100087.09;2063730;28;20208;-68
2023/10/27 03:37:53;;;;;;;3.13;1.00;;;;;;;17.03;100.00;100080.66;2064150;28;20690;-67
2023/10/27 03:38:53;;;;;;;2.70;0.67;;;;;;;17.04;100.00;100085.00;2063612;28;20198;-69
2023/10/27 03:39:54;;;;;;;1.33;0.70;;;;;;;17.06;100.00;100076.13;2063953;28;20197;-69
2023/10/27 03:40:54;;;;;;;1.40;0.70;;;;;;;16.53;100.00;100000.88;2063562;28;20270;-70
2023/10/27 03:41:56;;;;;;;1.37;0.60;;;;;;;17.07;100.00;100074.84;2061492;28;20678;-70
2023/10/27 03:42:56;;;;;;;0.90;0.70;;;;;;;17.06;100.00;100082.47;2057237;28;20241;-70
2023/10/27 03:43:57;;;;;;;1.60;0.63;;;;;;;17.06;100.00;100074.06;2063787;28;20480;-70
2023/10/27 03:44:57;;;;;;;2.57;0.90;;;;;;;17.07;100.00;100077.66;2064153;28;20293;-70
2023/10/27 03:45:58;;;;;;;2.57;0.77;;;;;;;17.00;100.00;100078.09;2063464;28;20198;-70
2023/10/27 03:46:58;;;;;;;1.37;0.60;;;;;;;16.86;100.00;100053.72;2063730;28;20207;-70
2023/10/27 03:47:59;;;;;;;1.20;0.60;;;;;;;17.05;100.00;100069.75;2063662;28;20205;-70
2023/10/27 03:49:00;;;;;;;1.93;0.70;;;;;;;17.06;100.00;100068.47;2063547;28;20189;-70
2023/10/27 03:50:00;;;;;;;1.63;0.70;;;;;;;17.06;100.00;100062.88;2064603;28;20237;-70
2023/10/27 03:51:05;;;;;;;1.57;0.80;;;;;;;16.60;100.00;99988.50;2065381;28;21068;-70
2023/10/27 03:52:05;;;;;;;1.07;0.70;;;;;;;17.05;100.00;100058.53;2063587;28;20317;-70
2023/10/27 03:53:06;;;;;;;1.27;0.70;;;;;;;16.86;100.00;100031.34;2057551;28;20430;-72
2023/10/27 03:54:07;;;;;;;1.63;0.70;;;;;;;17.05;100.00;100085.78;2063289;28;20655;-72
2023/10/27 03:55:11;;;;;;;1.20;0.57;;;;;;;17.04;100.00;100067.44;2063199;28;20906;-67
2023/10/27 03:56:11;;;;;;;1.87;0.87;;;;;;;17.05;100.00;100057.78;2063423;28;20198;-64
2023/10/27 03:57:12;;;;;;;0.83;0.70;;;;;;;17.03;100.00;100057.50;2065344;28;20452;-66
2023/10/27 03:58:14;;;;;;;1.30;0.77;;;;;;;16.90;100.00;100045.88;2065068;28;20190;-71
2023/10/27 03:59:16;;;;;;;2.37;0.50;;;;;;;16.99;100.00;100066.09;2062733;28;20252;-69
2023/10/27 04:00:16;;;;;;;1.97;0.80;;;;;;;16.99;100.00;100059.72;2065272;28;20434;-65
2023/10/27 04:01:17;;;;;;;0.80;0.60;;;;;;;17.26;100.00;100056.53;2065271;28;20428;-63
2023/10/27 04:02:17;;;;;;;2.00;0.50;;;;;;;17.41;100.00;100054.44;2064982;28;20301;-65
2023/10/27 04:03:18;;;;;;;2.90;0.60;;;;;;;17.52;100.00;100050.97;2065368;28;20217;-68
2023/10/27 04:04:18;;;;;;;4.13;0.70;;;;;;;17.88;100.00;100060.25;2064705;28;20678;-68
2023/10/27 04:05:19;;;;;;;1.57;1.00;;;;;;;18.02;100.00;100058.59;2064101;28;20820;-67
2023/10/27 04:06:20;;;;;;;1.97;0.60;;;;;;;18.03;100.00;100060.16;2066214;28;20641;-67
2023/10/27 04:07:20;;;;;;;2.50;0.70;;;;;;;18.12;100.00;100056.41;2064851;28;20229;-66
2023/10/27 04:08:21;;;;;;;3.53;1.10;;;;;;;18.20;100.00;100061.06;2064723;28;20985;-70
2023/10/27 04:09:22;;;;;;;0.93;0.70;;;;;;;18.27;100.00;100065.44;2064643;28;20667;-70
2023/10/27 04:10:22;;;;;;;3.00;0.63;;;;;;;18.35;100.00;100058.13;2064974;28;20185;-70
2023/10/27 04:11:23;;;;;;;4.33;0.80;;;;;;;18.45;100.00;100057.47;2057412;28;20687;-69
2023/10/27 04:12:23;;;;;;;1.90;0.80;;;;;;;18.59;100.00;100058.56;2069668;28;20607;-69
2023/10/27 04:13:23;;;;;;;1.17;0.80;;;;;;;18.77;100.00;100061.75;2067270;28;20453;-67
2023/10/27 04:14:24;;;;;;;1.13;0.60;;;;;;;18.76;100.00;100051.00;2064595;28;20202;-67
2023/10/27 04:15:25;;;;;;;2.97;0.93;;;;;;;18.96;100.00;100064.91;2064349;28;20202;-67
2023/10/27 04:16:25;;;;;;;4.80;1.00;;;;;;;19.06;100.00;100055.78;2062929;28;20190;-69
2023/10/27 04:17:26;;;;;;;0.60;0.53;;;;;;;19.14;100.00;100051.19;2064227;28;20467;-71
2023/10/27 04:18:26;;;;;;;0.87;0.63;;;;;;;19.05;100.00;100048.63;2065130;28;20691;-72
2023/10/27 04:19:27;;;;;;;1.00;0.60;;;;;;;18.95;100.00;100043.72;2065539;28;20277;-71
2023/10/27 04:20:27;;;;;;;1.23;0.80;;;;;;;18.87;100.00;100045.44;2064605;28;20209;-70
2023/10/27 04:21:28;;;;;;;1.70;0.80;;;;;;;18.54;100.00;100012.38;2065184;28;20739;-70
2023/10/27 04:22:29;;;;;;;2.00;0.60;;;;;;;18.61;100.00;100034.34;2059785;28;20249;-68
2023/10/27 04:23:30;;;;;;;0.93;0.63;;;;;;;18.62;100.00;100038.69;2056971;28;20966;-70
2023/10/27 04:24:30;;;;;;;0.97;0.50;;;;;;;18.51;100.00;100029.41;2062241;28;20202;-67
2023/10/27 04:25:30;;;;;;;4.30;1.40;;;;;;;18.48;100.00;100031.19;2063788;28;20187;-71
2023/10/27 04:26:31;;;;;;;2.60;1.10;;;;;;;18.14;100.00;99990.91;2063781;28;20190;-69
2023/10/27 04:27:31;;;;;;;2.90;0.97;;;;;;;18.34;100.00;100034.94;2064501;28;20186;-67
2023/10/27 04:28:32;;;;;;;1.17;0.77;;;;;;;18.28;100.00;100031.31;2063346;28;20198;-68
2023/10/27 04:29:32;;;;;;;2.27;0.80;;;;;;;18.22;100.00;100032.53;2064537;28;20204;-65
2023/10/27 04:30:33;;;;;;;1.63;0.90;;;;;;;18.16;100.00;100034.53;2064422;28;20221;-70
2023/10/27 04:31:33;;;;;;;1.37;0.73;;;;;;;18.10;100.00;100028.84;2060920;28;20569;-71
2023/10/27 04:32:36;;;;;;;1.53;0.80;;;;;;;17.59;100.00;99964.47;2064269;28;20194;-70
2023/10/27 04:33:37;;;;;;;0.93;0.70;;;;;;;17.95;100.00;100025.41;2070804;28;20170;-70
2023/10/27 04:34:38;;;;;;;1.10;0.63;;;;;;;17.28;100.00;99939.19;2064506;28;20428;-67
2023/10/27 04:35:38;;;;;;;3.23;1.10;;;;;;;17.24;100.00;99938.63;2064810;28;20234;-67
2023/10/27 04:36:39;;;;;;;2.13;1.00;;;;;;;17.67;100.00;100024.41;2056563;28;20466;-68
2023/10/27 04:37:39;;;;;;;1.47;0.90;;;;;;;17.70;100.00;100025.44;2055851;28;20281;-67
2023/10/27 04:38:40;;;;;;;1.20;0.70;;;;;;;17.67;100.00;100022.34;2055798;28;20615;-67